Terminal Aerodrome Forecast
Issued by NWS Shreveport, LA

Home | Current Version | Previous Version | Text Only | Print | Product List | Glossary On
Versions: 1 2 3 4 5 6 7 8 9 10 11 12 13 14 15 16 17 18 19 20
246
FTUS44 KSHV 181725
TAFTXK
TAF
KTXK 181725Z 1818/1918 08006KT 6SM -SHRA BR OVC006
     FM181900 07006KT 2SM RA BR OVC004
     FM190000 VRB03KT 3SM -RA BR OVC004
     FM191200 24003KT 5SM BR OVC005=

USA.gov is the U.S. government's official web portal to all federal, state and local government web resources and services.